createdAt,value
2023-05-05T00:00:18.462Z,25.85
2023-05-05T00:01:04.059Z,25.84
2023-05-05T00:02:04.080Z,25.85
2023-05-05T00:03:04.130Z,25.86
2023-05-05T00:04:04.078Z,25.81
2023-05-05T00:05:04.264Z,25.88
2023-05-05T00:06:04.049Z,25.83
2023-05-05T00:07:04.022Z,25.83
2023-05-05T00:08:04.010Z,25.88
2023-05-05T00:09:03.958Z,25.86
2023-05-05T00:10:03.936Z,25.86
2023-05-05T00:11:03.912Z,25.91
2023-05-05T00:12:03.903Z,25.88
2023-05-05T00:13:03.995Z,25.83
2023-05-05T00:14:03.852Z,25.87
2023-05-05T00:15:06.471Z,25.87
2023-05-05T00:16:03.781Z,25.86
2023-05-05T00:17:03.767Z,25.84
2023-05-05T00:18:03.771Z,25.87
2023-05-05T00:19:03.698Z,25.86
2023-05-05T00:20:03.661Z,25.91
2023-05-05T00:21:03.636Z,25.91
2023-05-05T00:22:03.603Z,25.86
2023-05-05T00:23:03.571Z,25.91
2023-05-05T00:24:03.572Z,25.87
2023-05-05T00:25:03.524Z,25.88
2023-05-05T00:26:03.493Z,25.91
2023-05-05T00:27:03.511Z,25.90
2023-05-05T00:28:03.447Z,25.92
2023-05-05T00:29:03.419Z,25.94
2023-05-05T00:30:03.408Z,25.90
2023-05-05T00:31:03.393Z,25.86
2023-05-05T00:32:03.375Z,25.91
2023-05-05T00:33:03.381Z,25.88
2023-05-05T00:34:03.292Z,25.88
2023-05-05T00:35:03.278Z,25.91
2023-05-05T00:36:03.295Z,25.90
2023-05-05T00:37:03.265Z,25.90
2023-05-05T00:38:03.290Z,25.90
2023-05-05T00:39:03.335Z,25.94
2023-05-05T00:40:03.313Z,25.91
2023-05-05T00:41:03.335Z,25.92
2023-05-05T00:42:03.332Z,25.91
2023-05-05T00:43:03.392Z,25.87
2023-05-05T00:44:03.376Z,25.92
2023-05-05T00:45:03.371Z,25.92
2023-05-05T00:46:03.428Z,25.92
2023-05-05T00:47:03.417Z,25.88
2023-05-05T00:48:03.438Z,25.92
2023-05-05T00:49:03.501Z,25.92
2023-05-05T00:50:03.442Z,25.92
2023-05-05T00:51:03.467Z,25.91
2023-05-05T00:52:03.480Z,25.94
2023-05-05T00:53:03.515Z,25.92
2023-05-05T00:54:03.505Z,25.92
2023-05-05T00:55:03.533Z,25.94
2023-05-05T00:56:03.563Z,25.96
2023-05-05T00:57:03.570Z,25.96
2023-05-05T00:58:03.554Z,25.96
2023-05-05T00:59:03.499Z,25.93
2023-05-05T01:00:03.476Z,25.95
2023-05-05T01:01:03.477Z,25.91
2023-05-05T01:02:03.435Z,25.90
2023-05-05T01:03:03.577Z,25.92
2023-05-05T01:04:03.439Z,25.96
2023-05-05T01:05:03.376Z,25.92
2023-05-05T01:06:03.310Z,25.96
2023-05-05T01:07:03.290Z,25.98
2023-05-05T01:08:03.268Z,25.92
2023-05-05T01:09:03.254Z,25.96
2023-05-05T01:10:18.064Z,25.96
2023-05-05T01:11:04.189Z,25.97
2023-05-05T01:12:03.165Z,25.96
2023-05-05T01:13:03.185Z,25.99
2023-05-05T01:14:03.115Z,25.98
2023-05-05T01:15:03.121Z,25.93
2023-05-05T01:16:03.069Z,25.98
2023-05-05T01:17:03.034Z,25.96
2023-05-05T01:18:03.049Z,25.97
2023-05-05T01:19:02.986Z,25.99
2023-05-05T01:20:02.985Z,26.02
2023-05-05T01:21:02.954Z,25.97
2023-05-05T01:22:02.930Z,25.96
2023-05-05T01:23:02.916Z,25.96
2023-05-05T01:24:02.883Z,25.97
2023-05-05T01:25:02.874Z,26.00
2023-05-05T01:26:02.849Z,25.95
2023-05-05T01:27:02.812Z,26.00
2023-05-05T01:28:02.869Z,26.02
2023-05-05T01:29:02.775Z,25.97
2023-05-05T01:30:02.750Z,25.95
2023-05-05T01:31:02.735Z,25.92
2023-05-05T01:32:02.733Z,26.02
2023-05-05T01:33:02.687Z,25.98
2023-05-05T01:34:02.669Z,25.99
2023-05-05T01:35:02.637Z,26.03
2023-05-05T01:36:02.607Z,26.02
2023-05-05T01:37:02.578Z,26.01
2023-05-05T01:38:02.615Z,26.00
2023-05-05T01:39:02.648Z,25.97
2023-05-05T01:40:02.638Z,26.00
2023-05-05T01:41:02.647Z,26.00
2023-05-05T01:42:02.674Z,26.00
2023-05-05T01:43:02.701Z,26.00
2023-05-05T01:44:02.717Z,25.99
2023-05-05T01:45:02.726Z,26.04
2023-05-05T01:46:02.788Z,26.03
2023-05-05T01:47:02.750Z,26.03
2023-05-05T01:48:02.791Z,26.00
2023-05-05T01:49:02.791Z,26.01
2023-05-05T01:50:02.820Z,26.00
2023-05-05T01:51:02.830Z,26.03
2023-05-05T01:52:02.851Z,26.04
2023-05-05T01:53:02.836Z,26.07
2023-05-05T01:54:02.812Z,26.00
2023-05-05T01:55:02.783Z,26.04
2023-05-05T01:56:02.770Z,26.06
2023-05-05T01:57:02.747Z,26.00
2023-05-05T01:58:02.751Z,26.04
2023-05-05T01:59:02.710Z,26.04
2023-05-05T02:00:02.685Z,26.01
2023-05-05T02:01:02.712Z,26.03
2023-05-05T02:02:02.751Z,26.00
2023-05-05T02:03:02.783Z,26.04
2023-05-05T02:04:02.644Z,26.00
2023-05-05T02:05:02.624Z,26.06
2023-05-05T02:06:02.627Z,26.04
2023-05-05T02:07:02.583Z,26.08
2023-05-05T02:08:02.621Z,26.03
2023-05-05T02:09:02.547Z,26.08
2023-05-05T02:10:02.569Z,26.04
2023-05-05T02:11:02.581Z,25.98
2023-05-05T02:12:02.593Z,26.01
2023-05-05T02:13:02.685Z,26.04
2023-05-05T02:14:02.686Z,26.07
2023-05-05T02:15:02.623Z,26.04
2023-05-05T02:16:02.653Z,26.04
2023-05-05T02:17:02.572Z,26.06
2023-05-05T02:18:02.632Z,26.06
2023-05-05T02:19:02.539Z,26.07
2023-05-05T02:20:02.540Z,26.05
2023-05-05T02:21:02.499Z,26.09
2023-05-05T02:22:02.487Z,26.05
2023-05-05T02:23:02.473Z,26.07
2023-05-05T02:24:02.463Z,26.08
2023-05-05T02:25:02.448Z,26.07
2023-05-05T02:26:02.446Z,26.05
2023-05-05T02:27:02.415Z,26.08
2023-05-05T02:28:02.404Z,26.07
2023-05-05T02:29:02.375Z,26.04
2023-05-05T02:30:02.357Z,26.09
2023-05-05T02:31:02.406Z,26.08
2023-05-05T02:32:02.323Z,26.09
2023-05-05T02:33:02.338Z,26.05
2023-05-05T02:34:02.295Z,26.08
2023-05-05T02:35:02.330Z,26.05
2023-05-05T02:36:02.369Z,26.09
2023-05-05T02:37:02.356Z,26.09
2023-05-05T02:38:02.386Z,26.08
2023-05-05T02:39:02.368Z,26.09
2023-05-05T02:40:02.346Z,26.09
2023-05-05T02:41:02.349Z,26.09
2023-05-05T02:42:02.320Z,26.12
2023-05-05T02:43:02.330Z,26.12
2023-05-05T02:44:02.305Z,26.12
2023-05-05T02:45:02.283Z,26.12
2023-05-05T02:46:02.405Z,25.41
2023-05-05T02:47:02.239Z,25.27
2023-05-05T02:48:02.338Z,25.05
2023-05-05T02:49:02.228Z,25.18
2023-05-05T02:50:02.206Z,24.98
2023-05-05T02:51:02.197Z,24.72
2023-05-05T02:52:02.214Z,24.71
2023-05-05T02:53:02.184Z,24.41
2023-05-05T02:54:02.151Z,24.30
2023-05-05T02:55:02.153Z,24.17
2023-05-05T02:56:02.164Z,24.12
2023-05-05T02:57:02.146Z,24.01
2023-05-05T02:58:02.125Z,23.95
2023-05-05T02:59:02.083Z,23.88
2023-05-05T03:00:02.063Z,23.79
2023-05-05T03:01:02.061Z,23.79
2023-05-05T03:02:02.052Z,23.70
2023-05-05T03:03:02.096Z,23.70
2023-05-05T03:04:02.064Z,23.75
2023-05-05T03:05:02.126Z,23.64
2023-05-05T03:06:02.160Z,23.64
2023-05-05T03:07:02.209Z,23.57
2023-05-05T03:08:02.268Z,23.65
2023-05-05T03:09:02.304Z,23.58
2023-05-05T03:10:02.362Z,23.52
2023-05-05T03:11:02.426Z,23.52
2023-05-05T03:12:02.485Z,23.54
2023-05-05T03:13:02.547Z,23.55
2023-05-05T03:14:02.569Z,23.46
2023-05-05T03:15:02.527Z,23.47
2023-05-05T03:16:02.587Z,23.43
2023-05-05T03:17:02.580Z,23.41
2023-05-05T03:18:02.607Z,23.50
2023-05-05T03:19:02.589Z,23.45
2023-05-05T03:20:03.963Z,23.42
2023-05-05T03:21:02.606Z,23.38
2023-05-05T03:22:02.613Z,23.45
2023-05-05T03:23:02.642Z,23.36
2023-05-05T03:24:02.621Z,23.36
2023-05-05T03:25:02.620Z,23.36
2023-05-05T03:26:02.623Z,23.37
2023-05-05T03:27:02.603Z,23.47
2023-05-05T03:28:02.628Z,23.40
2023-05-05T03:29:02.645Z,23.37
2023-05-05T03:30:02.621Z,23.40
2023-05-05T03:31:02.607Z,23.34
2023-05-05T03:32:02.672Z,23.34
2023-05-05T03:33:02.644Z,23.31
2023-05-05T03:34:02.623Z,23.32
2023-05-05T03:35:02.615Z,23.25
2023-05-05T03:36:02.635Z,23.29
2023-05-05T03:37:02.628Z,23.31
2023-05-05T03:38:02.649Z,23.32
2023-05-05T03:39:02.656Z,23.30
2023-05-05T03:40:02.712Z,23.26
2023-05-05T03:41:02.674Z,23.32
2023-05-05T03:42:02.695Z,23.27
2023-05-05T03:43:02.718Z,23.31
2023-05-05T03:44:02.716Z,23.30
2023-05-05T03:45:02.745Z,23.25
2023-05-05T03:46:02.762Z,23.28
2023-05-05T03:47:02.749Z,23.27
2023-05-05T03:48:02.775Z,23.30
2023-05-05T03:49:02.740Z,23.27
2023-05-05T03:50:02.726Z,23.32
2023-05-05T03:51:02.718Z,23.30
2023-05-05T03:52:02.721Z,23.27
2023-05-05T03:53:02.728Z,23.29
2023-05-05T03:54:02.727Z,23.22
2023-05-05T03:55:02.730Z,23.31
2023-05-05T03:56:02.722Z,23.32
2023-05-05T03:57:02.710Z,23.27
2023-05-05T03:58:02.704Z,23.32
2023-05-05T03:59:02.714Z,23.29
2023-05-05T04:00:02.705Z,23.27
2023-05-05T04:01:02.700Z,23.30
2023-05-05T04:02:02.718Z,23.29
2023-05-05T04:03:02.772Z,23.31
2023-05-05T04:04:02.737Z,23.34
2023-05-05T04:05:02.671Z,23.30
2023-05-05T04:06:02.679Z,23.37
2023-05-05T04:07:02.680Z,23.40
2023-05-05T04:08:02.672Z,23.36
2023-05-05T04:09:02.698Z,23.37
2023-05-05T04:10:02.729Z,23.36
2023-05-05T04:11:02.807Z,23.36
2023-05-05T04:12:02.815Z,23.30
2023-05-05T04:13:02.928Z,23.34
2023-05-05T04:14:02.902Z,23.37
2023-05-05T04:15:02.956Z,23.39
2023-05-05T04:16:03.094Z,23.39
2023-05-05T04:17:03.037Z,23.42
2023-05-05T04:18:03.115Z,23.39
2023-05-05T04:19:03.114Z,23.45
2023-05-05T04:20:03.163Z,23.48
2023-05-05T04:21:03.216Z,23.43
2023-05-05T04:22:03.253Z,23.46
2023-05-05T04:23:03.241Z,23.44
2023-05-05T04:24:03.256Z,23.46
2023-05-05T04:25:03.239Z,23.47
2023-05-05T04:26:03.235Z,23.47
2023-05-05T04:27:03.232Z,23.48
2023-05-05T04:28:03.235Z,23.46
2023-05-05T04:29:03.252Z,23.47
2023-05-05T04:30:03.253Z,23.47
2023-05-05T04:31:03.324Z,23.51
2023-05-05T04:32:03.247Z,23.44
2023-05-05T04:33:03.339Z,23.47
2023-05-05T04:34:03.250Z,23.46
2023-05-05T04:35:03.267Z,23.48
2023-05-05T04:36:03.299Z,23.51
2023-05-05T04:37:03.363Z,23.48
2023-05-05T04:38:03.427Z,23.53
2023-05-05T04:39:03.461Z,23.58
2023-05-05T04:40:03.479Z,23.58
2023-05-05T04:41:03.553Z,23.55
2023-05-05T04:42:03.576Z,23.55
2023-05-05T04:43:03.645Z,23.58
2023-05-05T04:44:03.701Z,23.55
2023-05-05T04:45:03.748Z,23.56
2023-05-05T04:46:03.813Z,23.63
2023-05-05T04:47:03.832Z,23.60
2023-05-05T04:48:03.935Z,23.62
2023-05-05T04:49:03.933Z,23.67
2023-05-05T04:50:04.008Z,23.62
2023-05-05T04:51:04.040Z,23.64
2023-05-05T04:52:04.092Z,23.67
2023-05-05T04:53:04.079Z,23.62
2023-05-05T04:54:04.089Z,23.66
2023-05-05T04:55:04.106Z,23.68
2023-05-05T04:56:04.067Z,23.74
2023-05-05T04:57:04.063Z,23.71
2023-05-05T04:58:04.187Z,23.75
2023-05-05T04:59:04.099Z,23.73
2023-05-05T05:00:04.063Z,23.76
2023-05-05T05:01:04.050Z,23.85
2023-05-05T05:02:04.151Z,23.91
2023-05-05T05:03:04.119Z,24.18
2023-05-05T05:04:04.078Z,24.21
2023-05-05T05:05:04.088Z,24.37
2023-05-05T05:06:04.139Z,24.37
2023-05-05T05:07:04.179Z,24.51
2023-05-05T05:08:04.245Z,24.65
2023-05-05T05:09:04.286Z,24.64
2023-05-05T05:10:04.314Z,24.64
2023-05-05T05:11:04.333Z,24.67
2023-05-05T05:12:04.359Z,24.63
2023-05-05T05:13:04.433Z,24.63
2023-05-05T05:14:04.421Z,24.58
2023-05-05T05:15:04.448Z,24.53
2023-05-05T05:16:04.517Z,24.58
2023-05-05T05:17:04.472Z,24.56
2023-05-05T05:18:04.576Z,24.55
2023-05-05T05:19:04.522Z,24.56
2023-05-05T05:20:04.538Z,24.55
2023-05-05T05:21:04.562Z,24.55
2023-05-05T05:22:04.601Z,24.61
2023-05-05T05:23:04.647Z,24.61
2023-05-05T05:24:04.608Z,24.59
2023-05-05T05:25:04.619Z,24.58
2023-05-05T05:26:04.622Z,24.62
2023-05-05T05:27:04.647Z,24.57
2023-05-05T05:28:09.513Z,24.61
2023-05-05T05:29:05.640Z,24.64
2023-05-05T05:30:04.623Z,24.63
2023-05-05T05:31:04.633Z,24.64
2023-05-05T05:32:04.675Z,24.67
2023-05-05T05:33:04.626Z,24.77
2023-05-05T05:34:04.585Z,25.03
2023-05-05T05:35:04.580Z,24.89
2023-05-05T05:36:04.564Z,24.84
2023-05-05T05:37:04.567Z,24.89
2023-05-05T05:38:04.553Z,24.78
2023-05-05T05:39:04.568Z,24.97
2023-05-05T05:40:04.568Z,24.87
2023-05-05T05:41:04.548Z,25.07
2023-05-05T05:42:04.543Z,25.18
2023-05-05T05:43:04.579Z,25.17
2023-05-05T05:44:04.540Z,24.94
2023-05-05T05:45:04.518Z,25.12
2023-05-05T05:46:05.378Z,25.04
2023-05-05T05:47:04.526Z,25.31
2023-05-05T05:48:04.605Z,25.29
2023-05-05T05:49:04.600Z,25.10
2023-05-05T05:50:04.574Z,25.02
2023-05-05T05:51:04.596Z,25.49
2023-05-05T05:52:04.644Z,25.75
2023-05-05T05:53:04.724Z,25.47
2023-05-05T05:54:04.778Z,25.23
2023-05-05T05:55:04.811Z,25.37
2023-05-05T05:56:04.854Z,25.13
2023-05-05T05:57:04.970Z,25.09
2023-05-05T05:58:04.990Z,25.21
2023-05-05T05:59:05.035Z,25.11
2023-05-05T06:00:05.222Z,25.08
2023-05-05T06:01:05.169Z,24.96
2023-05-05T06:02:05.205Z,25.15
2023-05-05T06:03:05.377Z,24.99
2023-05-05T06:04:05.286Z,25.06
2023-05-05T06:05:05.252Z,25.35
2023-05-05T06:06:05.242Z,25.26
2023-05-05T06:07:05.244Z,25.22
2023-05-05T06:08:05.269Z,25.25
2023-05-05T06:09:05.283Z,25.23
2023-05-05T06:10:22.674Z,25.23
2023-05-05T06:11:06.358Z,25.21
2023-05-05T06:12:05.307Z,25.11
2023-05-05T06:13:05.362Z,25.16
2023-05-05T06:14:05.319Z,25.33
2023-05-05T06:15:05.320Z,25.36
2023-05-05T06:16:05.541Z,25.48
2023-05-05T06:17:05.332Z,25.47
2023-05-05T06:18:05.409Z,25.56
2023-05-05T06:19:05.354Z,25.46
2023-05-05T06:20:05.395Z,25.53
2023-05-05T06:21:05.367Z,25.65
2023-05-05T06:22:05.370Z,25.65
2023-05-05T06:23:05.382Z,25.86
2023-05-05T06:24:05.398Z,25.87
2023-05-05T06:25:05.422Z,25.79
2023-05-05T06:26:05.418Z,25.71
2023-05-05T06:27:05.418Z,25.74
2023-05-05T06:28:05.427Z,25.75
2023-05-05T06:29:05.423Z,25.87
2023-05-05T06:30:05.594Z,25.97
2023-05-05T06:31:05.454Z,26.06
2023-05-05T06:32:05.464Z,26.27
2023-05-05T06:33:05.505Z,26.36
2023-05-05T06:34:05.496Z,26.59
2023-05-05T06:35:05.497Z,26.74
2023-05-05T06:36:05.520Z,26.74
2023-05-05T06:37:05.509Z,26.84
2023-05-05T06:38:05.493Z,27.07
2023-05-05T06:39:05.521Z,27.23
2023-05-05T06:40:05.690Z,27.26
2023-05-05T06:41:05.637Z,27.42
2023-05-05T06:42:05.539Z,27.50
2023-05-05T06:43:05.660Z,27.54
2023-05-05T06:44:05.550Z,27.58
2023-05-05T06:45:05.521Z,27.55
2023-05-05T06:46:05.544Z,27.92
2023-05-05T06:47:05.563Z,28.21
2023-05-05T06:48:05.586Z,27.99
2023-05-05T06:49:05.542Z,27.97
2023-05-05T06:50:05.688Z,27.59
2023-05-05T06:51:05.530Z,27.95
2023-05-05T06:52:05.675Z,27.98
2023-05-05T06:53:05.521Z,27.77
2023-05-05T06:54:05.529Z,27.66
2023-05-05T06:55:05.531Z,28.09
2023-05-05T06:56:05.549Z,27.76
2023-05-05T06:57:05.543Z,27.83
2023-05-05T06:58:05.532Z,27.83
2023-05-05T06:59:05.541Z,27.59
2023-05-05T07:00:05.818Z,27.52
2023-05-05T07:01:05.626Z,27.48
2023-05-05T07:02:05.548Z,27.78
2023-05-05T07:03:05.585Z,27.64
2023-05-05T07:04:05.592Z,27.51
2023-05-05T07:05:05.543Z,27.46
2023-05-05T07:06:05.548Z,27.42
2023-05-05T07:07:05.566Z,27.68
2023-05-05T07:08:05.626Z,27.61
2023-05-05T07:09:05.570Z,27.61
2023-05-05T07:10:05.728Z,27.64
2023-05-05T07:11:05.583Z,27.60
2023-05-05T07:12:05.572Z,27.53
2023-05-05T07:13:05.606Z,27.56
2023-05-05T07:14:05.578Z,27.67
2023-05-05T07:15:15.780Z,27.78
2023-05-05T07:16:06.627Z,27.95
2023-05-05T07:17:05.574Z,28.25
2023-05-05T07:18:05.629Z,27.98
2023-05-05T07:19:05.570Z,27.94
2023-05-05T07:20:05.636Z,28.15
2023-05-05T07:21:05.562Z,28.03
2023-05-05T07:22:05.561Z,28.02
2023-05-05T07:23:05.612Z,27.92
2023-05-05T07:24:05.637Z,28.01
2023-05-05T07:25:05.593Z,27.95
2023-05-05T07:26:05.638Z,27.81
2023-05-05T07:27:05.611Z,27.98
2023-05-05T07:28:05.601Z,28.00
2023-05-05T07:29:05.569Z,28.18
2023-05-05T07:30:10.122Z,28.28
2023-05-05T07:31:06.572Z,28.25
2023-05-05T07:32:05.609Z,28.02
2023-05-05T07:33:05.599Z,28.05
2023-05-05T07:34:05.609Z,28.09
2023-05-05T07:35:05.556Z,28.16
2023-05-05T07:36:05.571Z,28.03
2023-05-05T07:37:05.550Z,28.34
2023-05-05T07:38:05.550Z,27.92
2023-05-05T07:39:05.595Z,28.20
2023-05-05T07:40:05.925Z,28.53
2023-05-05T07:41:05.544Z,28.41
2023-05-05T07:42:05.545Z,28.20
2023-05-05T07:43:05.547Z,27.92
2023-05-05T07:44:05.590Z,27.53
2023-05-05T07:45:05.574Z,27.99
2023-05-05T07:46:05.673Z,27.57
2023-05-05T07:47:05.649Z,27.75
2023-05-05T07:48:05.778Z,27.44
2023-05-05T07:49:05.760Z,27.56
2023-05-05T07:50:06.490Z,27.27
2023-05-05T07:51:05.842Z,27.03
2023-05-05T07:52:05.879Z,26.89
2023-05-05T07:53:14.566Z,27.09
2023-05-05T07:54:05.942Z,27.11
2023-05-05T07:55:05.922Z,27.05
2023-05-05T07:56:05.977Z,27.27
2023-05-05T07:57:05.899Z,26.91
2023-05-05T07:58:05.887Z,26.84
2023-05-05T07:59:05.916Z,27.20
2023-05-05T08:00:05.970Z,26.94
2023-05-05T08:01:05.885Z,27.15
2023-05-05T08:02:05.893Z,27.15
2023-05-05T08:03:07.191Z,27.29
2023-05-05T08:04:05.871Z,27.13
2023-05-05T08:05:06.092Z,26.95
2023-05-05T08:06:05.774Z,27.06
2023-05-05T08:07:05.791Z,27.11
2023-05-05T08:08:05.762Z,27.19
2023-05-05T08:09:05.782Z,26.99
2023-05-05T08:10:05.761Z,26.90
2023-05-05T08:11:05.832Z,26.94
2023-05-05T08:12:05.936Z,26.85
2023-05-05T08:13:05.790Z,26.70
2023-05-05T08:14:05.716Z,26.66
2023-05-05T08:15:05.905Z,26.31
2023-05-05T08:16:05.749Z,26.30
2023-05-05T08:17:05.671Z,26.24
2023-05-05T08:18:05.750Z,26.19
2023-05-05T08:19:14.607Z,26.39
2023-05-05T08:20:06.651Z,26.28
2023-05-05T08:21:05.649Z,26.27
2023-05-05T08:22:05.635Z,26.64
2023-05-05T08:23:05.636Z,26.79
2023-05-05T08:24:05.632Z,26.79
2023-05-05T08:25:05.686Z,26.88
2023-05-05T08:26:05.586Z,26.87
2023-05-05T08:27:05.578Z,26.72
2023-05-05T08:28:05.666Z,26.58
2023-05-05T08:29:05.607Z,26.61
2023-05-05T08:30:05.542Z,26.87
2023-05-05T08:31:05.664Z,27.37
2023-05-05T08:32:05.525Z,27.18
2023-05-05T08:33:05.562Z,27.11
2023-05-05T08:34:05.502Z,26.38
2023-05-05T08:35:05.615Z,25.50
2023-05-05T08:36:05.467Z,25.62
2023-05-05T08:37:05.459Z,25.85
2023-05-05T08:38:05.426Z,25.67
2023-05-05T08:39:05.436Z,25.76
2023-05-05T08:40:05.416Z,25.73
2023-05-05T08:41:05.414Z,25.83
2023-05-05T08:42:05.400Z,25.71
2023-05-05T08:43:05.396Z,25.42
2023-05-05T08:44:05.647Z,25.76
2023-05-05T08:45:05.647Z,25.50
2023-05-05T08:46:05.391Z,25.70
2023-05-05T08:47:05.436Z,25.75
2023-05-05T08:48:05.474Z,25.89
2023-05-05T08:49:05.472Z,25.81
2023-05-05T08:50:05.367Z,25.85
2023-05-05T08:51:05.752Z,25.79
2023-05-05T08:52:05.375Z,25.98
2023-05-05T08:53:05.605Z,26.09
2023-05-05T08:54:05.461Z,25.79
2023-05-05T08:55:05.606Z,26.00
2023-05-05T08:56:05.546Z,25.87
2023-05-05T08:57:05.601Z,25.80
2023-05-05T08:58:05.672Z,25.75
2023-05-05T08:59:05.774Z,26.18
2023-05-05T09:00:05.824Z,25.98
2023-05-05T09:01:05.808Z,26.05
2023-05-05T09:02:05.861Z,25.91
2023-05-05T09:03:06.017Z,26.13
2023-05-05T09:04:05.874Z,26.00
2023-05-05T09:05:05.871Z,25.97
2023-05-05T09:06:05.847Z,25.92
2023-05-05T09:07:05.895Z,25.88
2023-05-05T09:08:05.831Z,25.88
2023-05-05T09:09:05.869Z,25.76
2023-05-05T09:10:05.832Z,25.73
2023-05-05T09:11:05.849Z,25.68
2023-05-05T09:12:05.890Z,25.69
2023-05-05T09:13:05.971Z,25.66
2023-05-05T09:14:05.996Z,25.48
2023-05-05T09:15:06.120Z,25.29
2023-05-05T09:16:06.056Z,25.37
2023-05-05T09:17:05.984Z,25.33
2023-05-05T09:18:06.015Z,25.48
2023-05-05T09:19:05.942Z,25.55
2023-05-05T09:20:05.950Z,25.48
2023-05-05T09:21:05.917Z,25.48
2023-05-05T09:22:05.932Z,25.40
2023-05-05T09:23:05.902Z,25.48
2023-05-05T09:24:08.244Z,25.45
2023-05-05T09:25:06.082Z,25.51
2023-05-05T09:26:05.875Z,25.43
2023-05-05T09:27:05.845Z,25.48
2023-05-05T09:28:05.853Z,25.37
2023-05-05T09:29:05.891Z,25.38
2023-05-05T09:30:05.834Z,25.47
2023-05-05T09:31:05.937Z,25.30
2023-05-05T09:32:05.906Z,25.24
2023-05-05T09:33:05.854Z,25.44
2023-05-05T09:34:05.756Z,25.24
2023-05-05T09:35:05.773Z,25.16
2023-05-05T09:36:05.737Z,25.03
2023-05-05T09:37:05.733Z,25.26
2023-05-05T09:38:05.712Z,25.20
2023-05-05T09:39:05.692Z,25.05
2023-05-05T09:40:05.707Z,24.98
2023-05-05T09:41:05.726Z,25.16
2023-05-05T09:42:05.784Z,24.97
2023-05-05T09:43:05.811Z,25.10
2023-05-05T09:44:05.896Z,25.07
2023-05-05T09:45:05.921Z,25.01
2023-05-05T09:46:05.989Z,25.01
2023-05-05T09:47:18.161Z,25.53
2023-05-05T09:48:07.111Z,25.82
2023-05-05T09:49:06.022Z,26.00
2023-05-05T09:50:06.222Z,26.00
2023-05-05T09:51:05.925Z,26.06
2023-05-05T09:52:05.936Z,26.10
2023-05-05T09:53:05.930Z,26.18
2023-05-05T09:54:05.909Z,26.13
2023-05-05T09:55:05.967Z,26.34
2023-05-05T09:56:05.928Z,26.33
2023-05-05T09:57:06.017Z,26.27
2023-05-05T09:58:06.033Z,26.21
2023-05-05T09:59:06.016Z,26.16
2023-05-05T10:00:06.160Z,26.24
2023-05-05T10:01:06.148Z,26.33
2023-05-05T10:02:06.106Z,26.30
2023-05-05T10:03:06.183Z,26.36
2023-05-05T10:04:06.328Z,26.36
2023-05-05T10:05:06.263Z,26.55
2023-05-05T10:06:06.169Z,26.98
2023-05-05T10:07:06.175Z,26.71
2023-05-05T10:08:06.209Z,26.84
2023-05-05T10:09:06.200Z,26.90
2023-05-05T10:10:06.321Z,26.99
2023-05-05T10:11:06.165Z,27.18
2023-05-05T10:12:06.145Z,27.17
2023-05-05T10:13:06.145Z,27.25
2023-05-05T10:14:06.096Z,27.25
2023-05-05T10:15:06.119Z,27.42
2023-05-05T10:16:06.087Z,27.52
2023-05-05T10:17:06.078Z,27.57
2023-05-05T10:18:08.174Z,27.55
2023-05-05T10:19:06.245Z,27.61
2023-05-05T10:20:06.446Z,27.64
2023-05-05T10:21:06.176Z,27.68
2023-05-05T10:22:06.168Z,27.72
2023-05-05T10:23:06.164Z,27.69
2023-05-05T10:24:06.185Z,27.81
2023-05-05T10:25:06.148Z,27.92
2023-05-05T10:26:06.113Z,27.98
2023-05-05T10:27:06.116Z,28.11
2023-05-05T10:28:06.085Z,28.17
2023-05-05T10:29:06.084Z,28.26
2023-05-05T10:30:06.211Z,28.19
2023-05-05T10:31:16.487Z,28.27
2023-05-05T10:32:27.121Z,28.34
2023-05-05T10:33:22.862Z,28.40
2023-05-05T10:34:07.085Z,28.37
2023-05-05T10:35:05.951Z,28.38
2023-05-05T10:36:06.035Z,27.19
2023-05-05T10:37:05.924Z,25.03
2023-05-05T10:38:05.880Z,24.47
2023-05-05T10:39:05.863Z,22.90
2023-05-05T10:40:05.978Z,23.93
2023-05-05T10:41:05.849Z,23.08
2023-05-05T10:42:05.827Z,23.25
2023-05-05T10:43:05.794Z,23.37
2023-05-05T10:44:05.849Z,23.69
2023-05-05T10:45:05.810Z,23.73
2023-05-05T10:46:05.812Z,23.77
2023-05-05T10:47:05.784Z,23.65
2023-05-05T10:48:05.838Z,23.51
2023-05-05T10:49:05.789Z,23.77
2023-05-05T10:50:05.796Z,23.81
2023-05-05T10:51:05.696Z,23.53
2023-05-05T10:52:05.850Z,23.77
2023-05-05T10:53:05.678Z,23.75
2023-05-05T10:54:05.701Z,23.71
2023-05-05T10:55:05.654Z,23.21
2023-05-05T10:56:05.625Z,22.99
2023-05-05T10:57:05.606Z,23.23
2023-05-05T10:58:05.595Z,22.78
2023-05-05T10:59:05.614Z,22.78
2023-05-05T11:00:05.646Z,22.93
2023-05-05T11:01:05.628Z,23.21
2023-05-05T11:02:05.584Z,23.03
2023-05-05T11:03:05.566Z,22.91
2023-05-05T11:04:05.643Z,22.69
2023-05-05T11:05:05.487Z,22.76
2023-05-05T11:06:05.464Z,22.29
2023-05-05T11:07:05.655Z,22.38
2023-05-05T11:08:05.420Z,22.32
2023-05-05T11:09:05.402Z,22.33
2023-05-05T11:10:05.486Z,23.04
2023-05-05T11:11:05.356Z,22.57
2023-05-05T11:12:05.328Z,21.98
2023-05-05T11:13:05.335Z,21.88
2023-05-05T11:14:05.348Z,21.67
2023-05-05T11:15:05.377Z,21.61
2023-05-05T11:16:05.654Z,21.68
2023-05-05T11:17:05.430Z,21.88
2023-05-05T11:18:07.331Z,21.92
2023-05-05T11:19:05.896Z,21.64
2023-05-05T11:20:05.832Z,21.59
2023-05-05T11:21:05.687Z,21.25
2023-05-05T11:22:05.635Z,21.79
2023-05-05T11:23:05.700Z,21.78
2023-05-05T11:24:05.659Z,21.94
2023-05-05T11:25:05.586Z,22.08
2023-05-05T11:26:05.594Z,22.03
2023-05-05T11:27:05.570Z,21.38
2023-05-05T11:28:05.528Z,21.53
2023-05-05T11:29:05.533Z,21.33
2023-05-05T11:30:05.555Z,20.75
2023-05-05T11:31:05.531Z,20.90
2023-05-05T11:32:05.426Z,20.66
2023-05-05T11:33:05.440Z,21.22
2023-05-05T11:34:05.381Z,21.46
2023-05-05T11:35:05.395Z,21.52
2023-05-05T11:36:06.769Z,21.09
2023-05-05T11:37:05.404Z,20.90
2023-05-05T11:38:05.439Z,21.42
2023-05-05T11:39:05.461Z,21.61
2023-05-05T11:40:05.662Z,21.61
2023-05-05T11:41:05.506Z,21.55
2023-05-05T11:42:10.371Z,21.43
2023-05-05T11:43:06.502Z,21.67
2023-05-05T11:44:05.474Z,21.70
2023-05-05T11:45:05.454Z,21.22
2023-05-05T11:46:05.451Z,21.31
2023-05-05T11:47:05.446Z,21.33
2023-05-05T11:48:05.442Z,20.43
2023-05-05T11:49:05.369Z,21.47
2023-05-05T11:50:05.376Z,21.42
2023-05-05T11:51:05.306Z,20.91
2023-05-05T11:52:05.296Z,21.19
2023-05-05T11:53:05.281Z,21.65
2023-05-05T11:54:05.277Z,21.81
2023-05-05T11:55:05.260Z,21.90
2023-05-05T11:56:05.446Z,21.90
2023-05-05T11:57:05.198Z,21.83
2023-05-05T11:58:05.215Z,21.84
2023-05-05T11:59:05.206Z,21.79
2023-05-05T12:00:05.221Z,21.79
2023-05-05T12:01:05.154Z,21.80
2023-05-05T12:02:05.125Z,21.93
2023-05-05T12:03:05.333Z,21.97
2023-05-05T12:04:05.255Z,22.02
2023-05-05T12:05:05.083Z,22.05
2023-05-05T12:06:05.031Z,22.10
2023-05-05T12:07:05.001Z,22.10
2023-05-05T12:08:05.009Z,22.10
2023-05-05T12:09:04.968Z,22.12
2023-05-05T12:10:05.025Z,22.07
2023-05-05T12:11:04.954Z,21.10
2023-05-05T12:12:04.973Z,21.37
2023-05-05T12:13:04.966Z,20.97
2023-05-05T12:14:04.934Z,21.14
2023-05-05T12:15:04.953Z,21.49
2023-05-05T12:16:04.969Z,21.47
2023-05-05T12:17:04.996Z,21.13
2023-05-05T12:18:05.081Z,21.07
2023-05-05T12:19:05.007Z,21.46
2023-05-05T12:20:05.041Z,21.06
2023-05-05T12:21:05.016Z,21.14
2023-05-05T12:22:05.045Z,21.23
2023-05-05T12:23:05.029Z,21.25
2023-05-05T12:24:05.056Z,21.40
2023-05-05T12:25:05.069Z,21.31
2023-05-05T12:26:05.070Z,21.07
2023-05-05T12:27:05.076Z,21.65
2023-05-05T12:28:05.152Z,21.62
2023-05-05T12:29:05.146Z,21.44
2023-05-05T12:30:05.150Z,21.61
2023-05-05T12:31:05.179Z,21.71
2023-05-05T12:32:05.250Z,21.37
2023-05-05T12:33:05.257Z,21.73
2023-05-05T12:34:05.227Z,21.89
2023-05-05T12:35:05.241Z,21.88
2023-05-05T12:36:05.236Z,21.92
2023-05-05T12:37:05.252Z,21.87
2023-05-05T12:38:05.290Z,21.88
2023-05-05T12:39:05.524Z,21.89
2023-05-05T12:40:05.283Z,21.99
2023-05-05T12:41:05.232Z,21.95
2023-05-05T12:42:05.282Z,22.05
2023-05-05T12:43:05.251Z,22.08
2023-05-05T12:44:05.379Z,22.06
2023-05-05T12:45:05.298Z,22.14
2023-05-05T12:46:05.349Z,22.06
2023-05-05T12:47:05.328Z,22.00
2023-05-05T12:48:05.372Z,21.56
2023-05-05T12:49:05.348Z,21.57
2023-05-05T12:50:05.337Z,21.48
2023-05-05T12:51:05.343Z,21.51
2023-05-05T12:52:05.345Z,20.99